createdAt,value
2023-01-17T00:04:39.515Z,24.99
2023-01-17T00:09:46.737Z,25.06
2023-01-17T00:14:54.232Z,25.06
2023-01-17T00:20:01.416Z,25.30
2023-01-17T00:25:08.666Z,25.23
2023-01-17T00:30:15.852Z,25.26
2023-01-17T00:35:23.029Z,25.24
2023-01-17T00:40:30.261Z,25.32
2023-01-17T00:45:37.485Z,25.42
2023-01-17T00:50:44.728Z,25.42
2023-01-17T00:55:51.979Z,25.58
2023-01-17T01:00:59.234Z,25.72
2023-01-17T01:06:06.359Z,25.79
2023-01-17T01:11:13.614Z,25.79
2023-01-17T01:16:20.958Z,25.82
2023-01-17T01:21:28.118Z,25.87
2023-01-17T01:26:35.525Z,25.84
2023-01-17T01:31:42.705Z,25.90
2023-01-17T01:36:49.870Z,25.83
2023-01-17T01:41:57.073Z,25.80
2023-01-17T01:47:04.283Z,25.80
2023-01-17T01:52:11.485Z,25.87
2023-01-17T01:57:18.776Z,25.83
2023-01-17T02:02:26.121Z,25.81
2023-01-17T02:07:33.302Z,25.65
2023-01-17T02:12:40.538Z,25.58
2023-01-17T02:17:47.748Z,25.62
2023-01-17T02:22:54.948Z,25.44
2023-01-17T02:28:02.163Z,25.70
2023-01-17T02:33:09.358Z,25.59
2023-01-17T02:38:16.617Z,25.72
2023-01-17T02:43:23.895Z,25.78
2023-01-17T02:48:31.040Z,25.78
2023-01-17T02:53:38.262Z,25.62
2023-01-17T02:58:45.489Z,25.75
2023-01-17T03:03:52.652Z,25.69
2023-01-17T03:08:59.879Z,25.67
2023-01-17T03:14:07.112Z,25.78
2023-01-17T03:19:14.302Z,25.81
2023-01-17T03:24:21.505Z,25.80
2023-01-17T03:29:28.760Z,25.80
2023-01-17T03:34:35.911Z,25.78
2023-01-17T03:39:43.104Z,25.73
2023-01-17T03:44:50.297Z,25.73
2023-01-17T03:49:57.434Z,25.68
2023-01-17T03:55:04.622Z,25.64
2023-01-17T04:00:11.907Z,25.75
2023-01-17T04:05:19.019Z,26.11
2023-01-17T04:10:26.179Z,25.88
2023-01-17T04:15:33.412Z,25.59
2023-01-17T04:20:40.624Z,25.36
2023-01-17T04:25:47.830Z,25.19
2023-01-17T04:30:55.062Z,25.04
2023-01-17T04:36:02.217Z,24.89
2023-01-17T04:41:09.440Z,24.70
2023-01-17T04:46:16.717Z,24.59
2023-01-17T04:51:23.890Z,24.48
2023-01-17T04:56:31.111Z,24.36
2023-01-17T05:01:38.522Z,24.24
2023-01-17T05:06:45.728Z,24.12
2023-01-17T05:11:52.973Z,24.00
2023-01-17T05:17:00.363Z,23.86
2023-01-17T05:22:07.671Z,23.76
2023-01-17T05:27:15.053Z,23.65
2023-01-17T05:32:22.551Z,23.56
2023-01-17T05:37:29.748Z,23.47
2023-01-17T05:42:37.026Z,23.42
2023-01-17T05:47:44.218Z,23.36
2023-01-17T05:52:51.330Z,23.29
2023-01-17T05:57:58.538Z,23.16
2023-01-17T06:03:05.784Z,23.09
2023-01-17T06:08:12.941Z,23.06
2023-01-17T06:13:20.150Z,22.89
2023-01-17T06:18:27.347Z,22.88
2023-01-17T06:23:34.564Z,22.83
2023-01-17T06:28:41.779Z,22.73
2023-01-17T06:33:49.008Z,22.68
2023-01-17T06:38:56.172Z,22.61
2023-01-17T06:44:03.404Z,22.56
2023-01-17T06:49:10.633Z,22.45
2023-01-17T06:54:17.734Z,22.40
2023-01-17T06:59:24.940Z,22.33
2023-01-17T07:04:32.130Z,22.27
2023-01-17T07:09:39.232Z,22.24
2023-01-17T07:14:46.412Z,22.17
2023-01-17T07:19:53.637Z,22.16
2023-01-17T07:25:00.816Z,22.14
2023-01-17T07:30:07.964Z,22.06
2023-01-17T07:35:15.159Z,22.05
2023-01-17T07:40:22.354Z,21.98
2023-01-17T07:45:29.545Z,21.96
2023-01-17T07:50:36.766Z,21.95
2023-01-17T07:55:43.902Z,21.90
2023-01-17T08:00:51.329Z,21.92
2023-01-17T08:05:58.417Z,22.05
2023-01-17T08:11:05.550Z,21.94
2023-01-17T08:16:12.778Z,21.90
2023-01-17T08:21:19.998Z,21.88
2023-01-17T08:26:27.179Z,21.83
2023-01-17T08:31:34.411Z,21.82
2023-01-17T08:36:41.603Z,21.79
2023-01-17T08:41:48.783Z,22.28
2023-01-17T08:46:55.986Z,22.22
2023-01-17T08:52:03.241Z,22.40
2023-01-17T08:57:10.400Z,22.08
2023-01-17T09:02:17.614Z,22.11
2023-01-17T09:07:24.857Z,22.16
2023-01-17T09:12:32.030Z,22.19
2023-01-17T09:17:39.222Z,22.22
2023-01-17T09:22:46.477Z,22.34
2023-01-17T09:27:53.627Z,22.37
2023-01-17T09:33:00.864Z,22.44
2023-01-17T09:38:08.117Z,22.52
2023-01-17T09:43:15.354Z,22.61
2023-01-17T09:48:22.547Z,22.67
2023-01-17T09:53:29.816Z,22.72
2023-01-17T09:58:36.968Z,22.66
2023-01-17T10:03:44.285Z,22.63
2023-01-17T10:08:51.408Z,22.69
2023-01-17T10:13:58.607Z,22.82
2023-01-17T10:19:05.783Z,23.07
2023-01-17T10:24:13.006Z,23.20
2023-01-17T10:29:21.197Z,23.44
2023-01-17T10:34:27.399Z,23.62
2023-01-17T10:39:34.631Z,23.85
2023-01-17T10:44:41.803Z,24.07
2023-01-17T10:49:49.016Z,24.34
2023-01-17T10:54:56.221Z,24.29
2023-01-17T11:00:03.397Z,24.05
2023-01-17T11:05:10.880Z,24.14
2023-01-17T11:10:18.110Z,24.09
2023-01-17T11:15:25.315Z,24.04
2023-01-17T11:20:32.444Z,24.04
2023-01-17T11:25:39.687Z,23.94
2023-01-17T11:30:46.864Z,23.94
2023-01-17T11:35:54.060Z,23.94
2023-01-17T11:41:01.267Z,23.93
2023-01-17T11:46:08.537Z,23.84
2023-01-17T11:51:15.709Z,23.86
2023-01-17T11:56:22.898Z,23.91
2023-01-17T12:01:30.076Z,24.01
2023-01-17T12:06:47.931Z,24.09
2023-01-17T12:11:44.542Z,24.07
2023-01-17T12:16:51.696Z,23.97
2023-01-17T12:21:58.933Z,24.06
2023-01-17T12:27:06.145Z,24.10
2023-01-17T12:32:13.333Z,24.20
2023-01-17T12:37:20.480Z,24.38
2023-01-17T12:42:27.702Z,24.50
2023-01-17T12:47:34.815Z,24.64
2023-01-17T12:52:42.022Z,24.73
2023-01-17T12:57:49.251Z,24.54
2023-01-17T13:02:56.408Z,24.44
2023-01-17T13:08:03.643Z,24.34
2023-01-17T13:13:10.874Z,24.41
2023-01-17T13:18:18.043Z,24.42
2023-01-17T13:23:25.286Z,24.31
2023-01-17T13:28:32.576Z,24.10
2023-01-17T13:33:39.766Z,24.25
2023-01-17T13:38:46.984Z,24.26
2023-01-17T13:43:54.260Z,24.30
2023-01-17T13:49:01.392Z,24.54
2023-01-17T13:54:08.630Z,24.65
2023-01-17T13:59:15.888Z,24.70
2023-01-17T14:04:23.118Z,24.76
2023-01-17T14:09:30.339Z,24.83
2023-01-17T14:14:37.701Z,25.02
2023-01-17T14:19:47.935Z,25.20
2023-01-17T14:24:55.088Z,25.15
2023-01-17T14:30:02.330Z,25.12
2023-01-17T14:35:09.513Z,25.19
2023-01-17T14:40:16.664Z,25.13
2023-01-17T14:45:23.915Z,25.17
2023-01-17T14:50:31.111Z,25.15
2023-01-17T14:55:38.362Z,25.10
2023-01-17T15:00:45.625Z,25.16
2023-01-17T15:05:52.728Z,25.16
2023-01-17T15:10:59.944Z,25.17
2023-01-17T15:16:07.426Z,25.21
2023-01-17T15:21:14.638Z,25.36
2023-01-17T15:26:21.841Z,25.37
2023-01-17T15:31:29.103Z,25.53
2023-01-17T15:36:36.254Z,25.74
2023-01-17T15:41:43.481Z,25.72
2023-01-17T15:46:50.715Z,25.52
2023-01-17T15:51:57.932Z,25.56
2023-01-17T15:57:05.077Z,25.71
2023-01-17T16:02:13.025Z,25.78
2023-01-17T16:07:20.015Z,25.54
2023-01-17T16:12:27.186Z,25.66
2023-01-17T16:17:34.429Z,25.58
2023-01-17T16:22:41.620Z,25.61
2023-01-17T16:27:49.237Z,25.58
2023-01-17T16:32:56.189Z,25.46
2023-01-17T16:38:03.328Z,25.41
2023-01-17T16:43:10.545Z,25.42
2023-01-17T16:48:19.386Z,25.57
2023-01-17T16:53:25.286Z,25.88
2023-01-17T16:58:32.276Z,25.91
2023-01-17T17:03:39.527Z,25.88
2023-01-17T17:08:46.665Z,25.79
2023-01-17T17:13:54.086Z,25.79
2023-01-17T17:19:01.421Z,25.80
2023-01-17T17:24:08.638Z,26.05
2023-01-17T17:29:15.900Z,26.91
2023-01-17T17:34:23.299Z,26.76
2023-01-17T17:39:30.331Z,26.64
2023-01-17T17:44:37.803Z,26.29
2023-01-17T17:49:45.176Z,26.54
2023-01-17T17:54:52.312Z,25.96
2023-01-17T17:59:59.608Z,25.86
2023-01-17T18:05:06.921Z,25.81
2023-01-17T18:10:14.040Z,26.58
2023-01-17T18:15:21.543Z,26.10
2023-01-17T18:20:30.118Z,26.12
2023-01-17T18:25:37.692Z,26.64
2023-01-17T18:30:45.308Z,26.02
2023-01-17T18:35:52.691Z,25.68
2023-01-17T18:41:00.126Z,25.73
2023-01-17T18:46:07.749Z,25.47
2023-01-17T18:51:15.380Z,25.70
2023-01-17T18:56:22.976Z,25.58
2023-01-17T19:01:30.749Z,25.72
2023-01-17T19:06:38.224Z,25.42
2023-01-17T19:11:45.813Z,25.50
2023-01-17T19:16:53.528Z,25.54
2023-01-17T19:22:01.175Z,25.69
2023-01-17T19:27:08.674Z,25.41
2023-01-17T19:32:16.373Z,25.18
2023-01-17T19:37:24.009Z,25.11
2023-01-17T19:42:31.600Z,25.48
2023-01-17T19:47:39.213Z,25.41
2023-01-17T19:52:46.632Z,25.24
2023-01-17T19:57:54.365Z,25.28
2023-01-17T20:03:01.385Z,25.31
2023-01-17T20:08:08.986Z,25.28
2023-01-17T20:13:16.288Z,25.46
2023-01-17T20:18:23.781Z,25.48
2023-01-17T20:23:31.150Z,25.70
2023-01-17T20:28:38.387Z,26.23
2023-01-17T20:33:45.898Z,26.66
2023-01-17T20:38:53.646Z,26.62
2023-01-17T20:44:01.046Z,26.67
2023-01-17T20:49:08.384Z,26.47
2023-01-17T20:54:15.710Z,25.89
2023-01-17T20:59:22.861Z,26.17
2023-01-17T21:04:30.074Z,26.52
2023-01-17T21:09:37.238Z,26.57
2023-01-17T21:14:44.476Z,26.41
2023-01-17T21:19:51.713Z,26.10
2023-01-17T21:24:58.907Z,25.99
2023-01-17T21:30:06.277Z,25.94
2023-01-17T21:35:13.656Z,25.98
2023-01-17T21:40:20.925Z,26.08
2023-01-17T21:45:28.116Z,25.97
2023-01-17T21:50:35.345Z,26.22
2023-01-17T21:55:42.539Z,26.05
2023-01-17T22:00:49.736Z,25.40
2023-01-17T22:05:56.894Z,25.53
2023-01-17T22:11:04.541Z,25.48
2023-01-17T22:16:11.766Z,25.05
2023-01-17T22:21:18.867Z,26.24
2023-01-17T22:26:26.190Z,26.41
2023-01-17T22:31:33.360Z,25.68
2023-01-17T22:36:40.525Z,25.38
2023-01-17T22:41:47.811Z,25.36
2023-01-17T22:46:54.993Z,25.23
2023-01-17T22:52:02.201Z,25.39
2023-01-17T22:57:09.421Z,25.28
2023-01-17T23:02:16.767Z,25.16
2023-01-17T23:07:23.778Z,25.16
2023-01-17T23:12:31.037Z,25.11
2023-01-17T23:17:38.223Z,24.89
2023-01-17T23:22:45.410Z,24.70
2023-01-17T23:27:52.708Z,24.86
2023-01-17T23:33:00.234Z,24.80
2023-01-17T23:38:06.991Z,24.80
2023-01-17T23:43:14.245Z,24.80
2023-01-17T23:48:21.461Z,23.96
2023-01-17T23:53:28.680Z,23.69
2023-01-17T23:58:35.857Z,23.75
